AirNav   Pilot Hours Calculator
 
 1645 users online  

13K Lt. William M. Milliken Airport
Eureka, Kansas, USA

GOING TO EUREKA?


FAA INFORMATION EFFECTIVE 15 AUGUST 2019

Location

FAA Identifier: 13K
Lat/Long: 37-51-05.8000N 096-17-31.3000W
37-51.096667N 096-17.521667W
37.8516111,-96.2920278
(estimated)
Elevation: 1208.1 ft. / 368.2 m (surveyed)
Variation: 06E (1985)
From city: 2 miles N of EUREKA, KS
Time zone: UTC -5 (UTC -6 during Standard Time)
Zip code: 67045

Airport Operations

Airport use: Open to the public
Activation date: 07/1959
Control tower: no
ARTCC: KANSAS CITY CENTER
FSS: WICHITA FLIGHT SERVICE STATION
NOTAMs facility: ICT (NOTAM-D service available)
Attendance: 0800-1700
Wind indicator: lighted, WIND INDICATOR IS FADED.
Segmented circle: yes
Lights: ACTVT MIRLS RWY 18/36 - CTAF.
Beacon: white-green (lighted land airport)
Operates sunset to sunrise.

Airport Communications

CTAF/UNICOM: 122.8
WX AWOS-3: 120.975 (620-583-2760)
  • APCH/DEP SVC PRVDD BY KANSAS CITY ARTCC ON FREQS 120.2/323.2 (EMPORIA RCAG).

Nearby radio navigation aids

VOR radial/distance  VOR name  Freq  Var
EMPr187/27.4EMPORIA VORTAC112.8008E
CNUr287/35.8CHANUTE VOR/DME109.2005E

 
NDB name  Hdg/Dist  Freq  Var  ID
BOYD220/38.124505EUKL ..- -.- .-..

Airport Services

Fuel available: 100LL MOGAS
Parking: tiedowns
Airframe service: MAJOR
Powerplant service: MAJOR
Bottled oxygen: NONE
Bulk oxygen: NONE

Runway Information

Runway 18/36

Dimensions: 3504 x 60 ft. / 1068 x 18 m
Surface: asphalt, in fair condition
Weight bearing capacity: 
Single wheel: 8.0
Runway edge lights: medium intensity
Runway edge markings: NRS ARE FADED DUE TO AGE AND WEATHER.
Gradient: N
RUNWAY 18  RUNWAY 36
Latitude: 37-51.323765N37-50.756317N
Longitude: 096-17.419327W096-17.552978W
Elevation: 1206.4 ft.1195.6 ft.
Traffic pattern: leftleft
Runway heading: 185 magnetic, 191 true005 magnetic, 011 true
Markings: numbers only, in poor conditionnumbers only, in poor condition
Visual slope indicator: 2-light PAPI on left (3.00 degrees glide path)2-light PAPI on left (3.00 degrees glide path)
Runway end identifier lights: nono
Touchdown point: yes, no lightsyes, no lights

Runway 8/26

Dimensions: 2146 x 55 ft. / 654 x 17 m
Surface: turf, in fair condition
Runway edge markings: WHITE TIRES MARK RY END.
Gradient: E
RUNWAY 8  RUNWAY 26
Latitude: 37-51.182243N37-51.197352N
Longitude: 096-17.802540W096-17.356937W
Elevation: 1194.6 ft.1208.1 ft.
Traffic pattern: leftleft
Runway heading: 081 magnetic, 087 true261 magnetic, 267 true
Runway end identifier lights: nono
Touchdown point: yes, no lightsyes, no lights
Obstructions: 4 ft. fence, marked, 76 ft. from runway, 19:1 slope to clear
DELINEATED WITH WHITE PAINTED TIRES.
23 ft. pline, 502 ft. from runway, 21:1 slope to clear

Airport Ownership and Management from official FAA records

Ownership: Publicly-owned
Owner: CITY OF EUREKA
MEMORIAL HALL
EUREKA, KS 67045
Phone 620-583-6511
Manager: LARRY DUTTON
1667 P ROAD
EUREKA, KS 67045
Phone 620-583-7732

Airport Operational Statistics

Aircraft based on the field: 14
Single engine airplanes: 13
Helicopters: 1
    
Aircraft operations: avg 94/week *
80% local general aviation
20% transient general aviation
* for 12-month period ending 01 September 2017

Additional Remarks

A58-36 GROUND DROPS DOWN ABRUPTLY 85 FT FM END OF RY.
WILDLIFE ON & INVOF ARPT.
FOR CD CTC KANSAS CITY ARTCC AT 913-254-8508.

Instrument Procedures

NOTE: All procedures below are presented as PDF files. If you need a reader for these files, you should download the free Adobe Reader.

NOT FOR NAVIGATION. Please procure official charts for flight.
FAA instrument procedures published for use from 15 August 2019 at 0901Z to 12 September 2019 at 0900Z.

 
IAPs - Instrument Approach Procedures
RNAV (GPS) RWY 18   download (182KB)
VOR/DME RWY 18   download (192KB)
NOTE: Special Take-Off Minimums/Departure Procedures apply   download (213KB)

Other nearby airports with instrument procedures:

KEQA - El Dorado/Captain Jack Thomas Memorial Airport (25 nm W)
KEMP - Emporia Municipal Airport (29 nm N)
KUKL - Coffey County Airport (38 nm NE)
3AU - Augusta Municipal Airport (39 nm W)
1K1 - Lloyd Stearman Field Airport (39 nm W)
 
Loc | Ops | Rwys | IFR | FBO | Links
Com | Nav | Svcs | Stats | Notes

Kansas City Aviation Department
 
Area around 13K (Lt. William M. Milliken Airport)
 
Road maps at: MapQuest Bing Google
 
Aerial photo
WARNING: Photo may not be current or correct
Aerial photo of 13K (Lt. William M. Milliken Airport)
Photo by David Newcomer
Photo taken 17-Oct-2015
from 4,500 altitude looking southeast.

Do you have a better or more recent aerial photo of Lt. William M. Milliken Airport that you would like to share? If so, please send us your photo.

 
Sectional chart

 
Airport distance calculator
Flying to Lt. William M. Milliken Airport? Find the distance to fly.

From to 13K

Sunrise and sunset
Times for 22-Aug-2019
 Local
(UTC-5)
 Zulu
(UTC)
Morning civil twilight06:2011:20
Sunrise06:4811:48
Sunset20:0801:08
Evening civil twilight20:3601:36

Current date and time
Zulu (UTC)  22-Aug-2019 18:44:35
Local (UTC-5)  22-Aug-2019 13:44:35
 
METAR
KEQA 
25nm W 
221835Z AUTO 12004KT 10SM CLR 27/20 A2999 RMK AO2
KEMP 
29nm N 
221753Z AUTO 06006KT 10SM CLR 25/21 A2998 RMK AO2 SLP145 6//// T02500211 58008
K3AU 
39nm W 
221835Z AUTO 25005KT 10SM OVC110 24/21 A3001 RMK AO2
K1K1 
39nm W 
221835Z AUTO 10SM -DZ SCT065 BKN090 OVC110 22/20 A3000 RMK AO2 T02230200
KCNU 
40nm E 
221829Z AUTO 15004KT 10SM SCT012 OVC021 24/21 A3000 RMK AO2 RAE18 P0001 T02440211
KK88 
43nm E 
221835Z AUTO 09003KT 10SM BKN016 BKN021 24/21 A3001 RMK AO1 T02420210
KAAO 
44nm W 
221754Z AUTO 35003KT 10SM FEW080 OVC100 23/21 A2998 RMK AO2 SLP142 60000 T02280206 10228 20200 56002 $
KBEC 
45nm W 
221835Z AUTO 22008KT 10SM BKN120 24/21 A3001 RMK AO2 LTG DSNT NW T02400209
KEWK 
47nm W 
221756Z AUTO 10004KT 10SM FEW110 24/20 A3000 RMK AO2 SLP144 T02390200 10239 20194 58000
KIDP 
48nm SE 
221835Z AUTO 06006KT 10SM SCT018 BKN120 25/21 A2998 RMK AO2 T02540213
TAF
KCNU 
40nm E 
221725Z 2218/2318 10006KT P6SM VCSH SCT010 OVC100 TEMPO 2218/2222 -RA FM230200 VRB05KT P6SM VCTS OVC025CB FM230900 VRB05KT P6SM BKN020
KIAB 
48nm W 
221800Z 2218/2324 12009KT 9999 VCSH FEW040 BKN070 QNH2990INS BECMG 2218/2219 12010G15KT 8000 -SHRA VCTS FEW020 BKN040CB QNH2989INS TEMPO 2220/2224 23020G35KT 4800 -TSRA BKN020CB OVC040 BECMG 2302/2303 15010G15KT 9999 VCSH FEW040 BKN070 QNH2985INS BECMG 2313/2314 15010G15KT 8000 -SHRA FEW020 BKN040 QNH2983INS TEMPO 2318/2324 15020G30KT 4800 -TSRA BKN020CB OVC040 TX29/2222Z TN19/2312Z
NOTAMs
Click for the latest NOTAMs
NOTAMs are issued by the DoD/FAA and will open in a separate window not controlled by AirNav.

 

 
 

FBO, Fuel Providers, and Aircraft Ground Support

  
 Business Name 
 
 Contact 
 
 Services / Description 
 
Fuel Prices
 
Comments
  
Captain D Aviation 620-583-7732
no information available

If you are affiliated with Captain D Aviation and would like to show here your services, contact info, web link, logo, and more, click here
100LL
FS $4.69 
 Updated 09-Jul-2019
 
   write
FS=Full service
Update Fuel Prices
 

Would you like to see your business listed on this page?

 If your business provides an interesting product or service to pilots, flight crews, aircraft, or users of the Lt. William M. Milliken Airport, you should consider listing it here.  To start the listing process, click on the button below
 
Add a business
 

Other Pages about Lt. William M. Milliken Airport

Update a link
 
Copyright © AirNav, LLC. All rights reserved. Privacy Policy  Contact